Time;durP1;ratioP1;P1;durP2;ratioP2;P2;SDS_P1;SDS_P2;PMS_P1;PMS_P2;Temp;Humidity;BMP_temperature;BMP_pressure;BME280_temperature;BME280_humidity;BME280_pressure;Samples;Min_cycle;Max_cycle;Signal;HPM_P1;HPM_P2
2023/12/20 00:01:17;;;;;;;;;;;;;;;10.49;52.17;98693.46;109613;1251;67251;-58
2023/12/20 00:03:45;;;;;;;;;;;;;;;10.48;52.51;98690.63;109616;1251;72704;-59
2023/12/20 00:06:12;;;;;;;;;;;;;;;10.51;52.21;98689.27;109616;1254;60923;-58
2023/12/20 00:08:40;;;;;;;;;;;;;;;10.49;51.86;98691.48;109584;1255;59853;-58
2023/12/20 00:11:07;;;;;;;;;;;;;;;10.40;52.34;98694.77;109646;1252;73981;-58
2023/12/20 00:13:35;;;;;;;;;;;;;;;10.65;51.73;98697.15;109581;1253;68539;-58
2023/12/20 00:16:02;;;;;;;;;;;;;;;10.57;51.62;98693.22;109568;1251;72693;-56
2023/12/20 00:18:30;;;;;;;;;;;;;;;10.58;51.76;98689.89;109629;1254;59644;-58
2023/12/20 00:20:57;;;;;;;;;;;;;;;10.51;51.96;98686.05;109635;1253;59836;-59
2023/12/20 00:23:24;;;;;;;;;;;;;;;10.39;52.23;98688.25;109616;1252;74683;-58
2023/12/20 00:25:52;;;;;;;;;;;;;;;10.29;52.53;98681.11;109250;1253;67842;-58
2023/12/20 00:28:19;;;;;;;;;;;;;;;10.33;52.34;98679.17;109607;1253;71436;-58
2023/12/20 00:30:47;;;;;;;;;;;;;;;10.37;52.06;98674.29;109561;1255;59942;-58
2023/12/20 00:33:14;;;;;;;;;;;;;;;10.36;52.06;98672.09;109609;1252;59019;-58
2023/12/20 00:35:42;;;;;;;;;;;;;;;10.32;52.23;98663.20;109616;1252;73523;-60
2023/12/20 00:38:11;;;;;;;;;;;;;;;10.28;52.23;98656.89;109557;1254;69016;-59
2023/12/20 00:40:38;;;;;;;;;;;;;;;10.41;52.05;98650.89;109347;1254;72685;-58
2023/12/20 00:43:05;;;;;;;;;;;;;;;10.49;51.67;98641.14;109311;1256;60952;-58
2023/12/20 00:45:33;;;;;;;;;;;;;;;10.47;51.84;98644.04;109379;1254;59861;-58
2023/12/20 00:48:00;;;;;;;;;;;;;;;10.26;52.60;98638.01;109310;1254;73461;-58
2023/12/20 00:50:28;;;;;;;;;;;;;;;10.29;52.33;98639.17;109337;1257;68568;-58
2023/12/20 00:52:56;;;;;;;;;;;;;;;10.26;52.38;98637.83;109337;1254;71736;-58
2023/12/20 00:55:24;;;;;;;;;;;;;;;10.24;52.46;98638.05;109345;1258;60881;-58
2023/12/20 00:57:53;;;;;;;;;;;;;;;10.18;52.57;98640.33;109328;1258;59061;-58
2023/12/20 01:00:21;;;;;;;;;;;;;;;10.26;52.41;98633.43;109342;1253;74707;-59
2023/12/20 01:02:51;;;;;;;;;;;;;;;10.06;52.81;98630.60;109338;1254;67574;-58
2023/12/20 01:05:19;;;;;;;;;;;;;;;10.00;52.94;98628.20;109369;1253;71431;-58
2023/12/20 01:07:46;;;;;;;;;;;;;;;10.10;52.84;98636.00;109333;1254;61011;-58
2023/12/20 01:10:14;;;;;;;;;;;;;;;10.03;53.04;98639.02;109570;1254;59179;-57
2023/12/20 01:12:42;;;;;;;;;;;;;;;10.25;52.41;98632.64;109538;1254;73441;-58
2023/12/20 01:15:10;;;;;;;;;;;;;;;10.23;52.26;98625.61;109596;1256;68837;-58
2023/12/20 01:17:37;;;;;;;;;;;;;;;10.17;52.37;98629.60;109573;1253;72806;-57
2023/12/20 01:20:05;;;;;;;;;;;;;;;10.22;52.30;98624.66;109555;1253;59006;-58
2023/12/20 01:22:35;;;;;;;;;;;;;;;10.11;52.41;98613.16;109636;1252;58892;-57
2023/12/20 01:25:03;;;;;;;;;;;;;;;10.45;51.07;98610.15;109599;1252;74655;-57
2023/12/20 01:27:31;;;;;;;;;;;;;;;10.22;51.33;98602.19;109621;1253;66592;-58
2023/12/20 01:29:58;;;;;;;;;;;;;;;10.20;51.24;98602.73;109575;1253;72773;-59
2023/12/20 01:32:25;;;;;;;;;;;;;;;10.37;50.46;98606.90;109571;1254;59636;-60
2023/12/20 01:34:53;;;;;;;;;;;;;;;10.50;49.92;98610.08;109603;1256;59898;-58
2023/12/20 01:37:25;;;;;;;;;;;;;;;10.59;49.26;98605.84;109568;1253;74706;-59
2023/12/20 01:39:52;;;;;;;;;;;;;;;10.36;49.20;98594.62;109582;1254;67709;-57
2023/12/20 01:42:20;;;;;;;;;;;;;;;10.57;48.54;98584.16;109621;1254;72707;-58
2023/12/20 01:44:47;;;;;;;;;;;;;;;10.74;47.62;98580.58;109628;1252;60900;-59
2023/12/20 01:47:15;;;;;;;;;;;;;;;11.02;47.09;98584.30;109603;1254;60304;-60
2023/12/20 01:49:42;;;;;;;;;;;;;;;11.03;46.70;98584.51;109643;1253;73435;-58
2023/12/20 01:52:10;;;;;;;;;;;;;;;11.23;46.11;98578.06;109599;1253;68505;-59
2023/12/20 01:54:39;;;;;;;;;;;;;;;11.13;46.14;98573.48;109586;1252;72721;-58
2023/12/20 01:57:07;;;;;;;;;;;;;;;11.34;45.49;98572.55;109599;1252;59698;-59
2023/12/20 01:59:34;;;;;;;;;;;;;;;11.39;45.63;98569.33;109609;1252;59970;-59
2023/12/20 02:02:02;;;;;;;;;;;;;;;11.13;45.60;98563.59;109613;1252;74683;-58
2023/12/20 02:04:30;;;;;;;;;;;;;;;11.40;45.50;98570.34;109536;1252;67224;-59
2023/12/20 02:06:58;;;;;;;;;;;;;;;11.44;45.04;98559.61;109570;1254;72677;-58
2023/12/20 02:09:25;;;;;;;;;;;;;;;11.50;44.91;98563.80;109529;1252;59369;-58
2023/12/20 02:11:53;;;;;;;;;;;;;;;11.58;44.81;98561.99;109645;1252;59457;-58
2023/12/20 02:14:20;;;;;;;;;;;;;;;11.47;44.78;98559.44;109555;1253;74834;-58
2023/12/20 02:16:48;;;;;;;;;;;;;;;11.45;45.01;98559.27;109377;1254;67302;-58
2023/12/20 02:19:15;;;;;;;;;;;;;;;11.66;44.85;98554.77;109362;1254;70780;-58
2023/12/20 02:21:43;;;;;;;;;;;;;;;11.45;44.71;98548.91;109188;1254;59051;-57
2023/12/20 02:24:10;;;;;;;;;;;;;;;11.50;44.94;98551.27;109363;1254;59600;-57
2023/12/20 02:26:38;;;;;;;;;;;;;;;11.48;45.06;98545.98;109334;1254;74750;-58
2023/12/20 02:29:05;;;;;;;;;;;;;;;11.41;45.18;98540.11;109353;1254;68848;-58
2023/12/20 02:31:32;;;;;;;;;;;;;;;11.54;44.98;98544.20;109355;1254;73190;-58
2023/12/20 02:34:00;;;;;;;;;;;;;;;11.63;44.88;98540.55;109327;1257;58997;-58
2023/12/20 02:36:28;;;;;;;;;;;;;;;11.38;45.27;98538.33;109184;1254;58954;-58
2023/12/20 02:38:55;;;;;;;;;;;;;;;11.42;45.21;98540.23;109101;1254;73466;-58
2023/12/20 02:41:22;;;;;;;;;;;;;;;11.43;45.34;98546.45;109412;1253;68686;-58
2023/12/20 02:43:50;;;;;;;;;;;;;;;11.34;45.37;98542.55;109177;1257;71462;-58
2023/12/20 02:46:17;;;;;;;;;;;;;;;11.44;45.43;98542.95;109292;1257;59443;-58
2023/12/20 02:48:47;;;;;;;;;;;;;;;11.45;45.51;98547.25;109385;1258;59865;-60
2023/12/20 02:51:14;;;;;;;;;;;;;;;11.63;44.81;98546.62;109413;1254;73282;-58
2023/12/20 02:53:42;;;;;;;;;;;;;;;11.64;44.81;98542.11;109530;1254;66251;-61
2023/12/20 02:56:09;;;;;;;;;;;;;;;11.48;44.99;98527.06;109495;1253;71817;-58
2023/12/20 02:58:37;;;;;;;;;;;;;;;11.45;45.14;98522.25;109542;1254;58920;-58
2023/12/20 03:01:04;;;;;;;;;;;;;;;11.50;45.25;98523.92;109468;1253;59891;-58
2023/12/20 03:03:32;;;;;;;;;;;;;;;11.36;45.52;98519.17;109567;1254;73790;-58
2023/12/20 03:05:59;;;;;;;;;;;;;;;11.27;45.78;98516.53;109622;1252;68575;-57
2023/12/20 03:08:27;;;;;;;;;;;;;;;11.22;45.71;98518.29;109569;1254;72706;-58
2023/12/20 03:11:01;;;;;;;;;;;;;;;11.23;45.66;98515.97;109612;1253;59683;-58
2023/12/20 03:13:28;;;;;;;;;;;;;;;11.21;45.72;98520.39;109595;1253;59891;-58
2023/12/20 03:15:56;;;;;;;;;;;;;;;11.11;46.01;98518.11;109513;1254;72602;-59
2023/12/20 03:18:23;;;;;;;;;;;;;;;11.23;45.88;98520.70;109589;1253;68948;-59
2023/12/20 03:20:51;;;;;;;;;;;;;;;11.27;45.70;98528.23;109498;1254;72804;-59
2023/12/20 03:23:19;;;;;;;;;;;;;;;10.97;46.24;98528.48;109191;1254;59999;-57
2023/12/20 03:25:46;;;;;;;;;;;;;;;11.09;46.08;98527.54;109406;1253;59014;-58
2023/12/20 03:28:14;;;;;;;;;;;;;;;11.22;45.83;98525.97;109586;1253;74934;-59
2023/12/20 03:30:42;;;;;;;;;;;;;;;11.12;45.91;98527.63;109184;1253;68616;-57
2023/12/20 03:33:09;;;;;;;;;;;;;;;10.89;46.19;98531.94;109624;1253;72761;-59
2023/12/20 03:35:37;;;;;;;;;;;;;;;10.97;46.07;98532.79;109647;1252;59677;-59
2023/12/20 03:38:04;;;;;;;;;;;;;;;10.99;46.03;98530.04;109585;1253;59868;-59
2023/12/20 03:40:32;;;;;;;;;;;;;;;11.10;46.01;98525.77;109553;1253;73484;-59
2023/12/20 03:42:59;;;;;;;;;;;;;;;10.84;46.14;98520.98;109602;1253;68889;-59
2023/12/20 03:45:27;;;;;;;;;;;;;;;10.97;45.88;98522.00;109576;1254;71443;-59
2023/12/20 03:47:56;;;;;;;;;;;;;;;10.87;45.83;98521.02;109539;1253;59684;-59
2023/12/20 03:50:23;;;;;;;;;;;;;;;11.08;45.56;98523.90;109552;1253;59913;-60
2023/12/20 03:52:51;;;;;;;;;;;;;;;11.15;45.35;98522.86;109605;1253;73605;-58
2023/12/20 03:55:18;;;;;;;;;;;;;;;11.12;45.53;98519.77;109600;1253;66280;-59
2023/12/20 03:57:46;;;;;;;;;;;;;;;11.31;45.38;98522.73;109606;1252;71868;-59
2023/12/20 04:00:14;;;;;;;;;;;;;;;11.30;45.09;98521.70;109565;1253;59293;-58
2023/12/20 04:02:42;;;;;;;;;;;;;;;11.00;45.54;98512.20;109591;1252;59084;-59
2023/12/20 04:05:09;;;;;;;;;;;;;;;11.06;45.60;98513.48;109622;1252;72961;-59
2023/12/20 04:07:37;;;;;;;;;;;;;;;11.06;45.54;98507.35;109583;1252;68506;-59
2023/12/20 04:10:05;;;;;;;;;;;;;;;10.97;45.82;98510.13;109572;1252;70563;-59
2023/12/20 04:12:33;;;;;;;;;;;;;;;11.00;46.02;98516.39;109597;1253;59640;-58
2023/12/20 04:15:00;;;;;;;;;;;;;;;11.07;45.67;98524.49;109428;1253;59127;-59
2023/12/20 04:17:28;;;;;;;;;;;;;;;11.14;45.69;98523.08;109634;1252;74763;-61
2023/12/20 04:19:55;;;;;;;;;;;;;;;11.19;45.59;98523.05;109595;1252;66277;-59
2023/12/20 04:22:23;;;;;;;;;;;;;;;10.97;46.00;98522.27;109638;1254;72723;-58
2023/12/20 04:24:50;;;;;;;;;;;;;;;11.02;45.90;98523.73;109594;1253;59686;-60
2023/12/20 04:27:18;;;;;;;;;;;;;;;10.89;46.10;98528.45;109634;1253;59258;-59
2023/12/20 04:29:45;;;;;;;;;;;;;;;10.82;46.37;98536.78;109615;1253;74732;-63
2023/12/20 04:32:13;;;;;;;;;;;;;;;10.82;46.61;98538.23;109214;1253;68564;-59
2023/12/20 04:34:40;;;;;;;;;;;;;;;10.84;46.52;98529.24;109352;1253;72696;-60
2023/12/20 04:37:07;;;;;;;;;;;;;;;10.84;46.71;98534.83;109620;1253;61108;-59
2023/12/20 04:39:35;;;;;;;;;;;;;;;10.88;46.52;98531.46;109180;1253;59022;-60
2023/12/20 04:42:03;;;;;;;;;;;;;;;10.90;46.54;98533.50;109586;1253;74701;-59
2023/12/20 04:44:30;;;;;;;;;;;;;;;10.80;46.53;98533.63;109592;1252;67328;-59
2023/12/20 04:46:58;;;;;;;;;;;;;;;10.83;46.64;98538.59;109565;1253;72752;-59
2023/12/20 04:49:25;;;;;;;;;;;;;;;10.87;46.52;98539.75;109593;1253;59642;-59
2023/12/20 04:51:53;;;;;;;;;;;;;;;10.80;46.77;98538.45;109610;1251;59863;-60
2023/12/20 04:54:20;;;;;;;;;;;;;;;10.83;46.79;98537.04;109587;1252;74681;-60
2023/12/20 04:56:48;;;;;;;;;;;;;;;10.94;46.62;98542.54;109607;1252;67499;-58
2023/12/20 04:59:15;;;;;;;;;;;;;;;11.04;46.66;98539.34;109590;1253;71628;-59
2023/12/20 05:01:43;;;;;;;;;;;;;;;11.17;46.55;98538.48;109590;1252;59637;-58
2023/12/20 05:04:10;;;;;;;;;;;;;;;10.90;47.20;98536.33;109453;1253;59842;-59
2023/12/20 05:06:38;;;;;;;;;;;;;;;11.08;47.33;98531.25;109498;1252;73426;-60
2023/12/20 05:09:06;;;;;;;;;;;;;;;11.00;47.52;98531.53;109598;1252;68518;-59
2023/12/20 05:11:33;;;;;;;;;;;;;;;10.94;47.93;98525.58;109630;1253;71462;-60
2023/12/20 05:14:01;;;;;;;;;;;;;;;10.86;48.34;98522.95;109611;1252;60956;-60
2023/12/20 05:16:28;;;;;;;;;;;;;;;10.96;48.45;98520.45;109552;1253;59062;-60
2023/12/20 05:18:55;;;;;;;;;;;;;;;11.11;48.02;98518.70;109578;1253;74692;-59
2023/12/20 05:21:24;;;;;;;;;;;;;;;11.01;47.91;98514.28;109161;1253;70474;-57
2023/12/20 05:23:51;;;;;;;;;;;;;;;10.82;48.07;98513.91;109372;1254;125548;-57
2023/12/20 05:26:18;;;;;;;;;;;;;;;10.85;48.05;98511.46;109267;1256;60909;-57
2023/12/20 05:28:46;;;;;;;;;;;;;;;10.96;47.82;98512.07;109138;1257;59145;-63
2023/12/20 05:31:13;;;;;;;;;;;;;;;10.78;47.93;98508.99;109125;1257;74699;-58
2023/12/20 05:33:41;;;;;;;;;;;;;;;10.69;48.07;98504.92;109194;1256;66957;-59
2023/12/20 05:36:11;;;;;;;;;;;;;;;10.38;48.95;98502.06;108935;1257;72880;-60
2023/12/20 05:38:38;;;;;;;;;;;;;;;10.39;48.51;98503.80;109124;1257;59638;-62
2023/12/20 05:41:06;;;;;;;;;;;;;;;10.06;49.53;98504.27;109132;1257;59881;-62
2023/12/20 05:43:33;;;;;;;;;;;;;;;9.98;49.68;98497.27;109126;1257;74772;-59
2023/12/20 05:46:01;;;;;;;;;;;;;;;9.95;50.05;98498.05;109113;1257;67699;-63
2023/12/20 05:48:28;;;;;;;;;;;;;;;9.70;50.66;98495.46;109120;1256;72771;-58
2023/12/20 05:50:56;;;;;;;;;;;;;;;9.79;50.00;98493.83;108938;1257;59694;-60
2023/12/20 05:53:23;;;;;;;;;;;;;;;9.88;49.85;98493.63;109094;1257;59869;-61
2023/12/20 05:55:51;;;;;;;;;;;;;;;9.96;49.76;98485.27;109131;1257;74714;-60
2023/12/20 05:58:19;;;;;;;;;;;;;;;9.76;50.39;98481.29;109362;1253;67571;-60
2023/12/20 06:00:46;;;;;;;;;;;;;;;9.95;49.74;98485.13;109392;1253;71508;-59
2023/12/20 06:03:14;;;;;;;;;;;;;;;10.06;49.60;98495.31;109398;1253;60957;-59
2023/12/20 06:05:41;;;;;;;;;;;;;;;9.92;49.92;98498.11;109398;1252;59920;-59
2023/12/20 06:08:09;;;;;;;;;;;;;;;9.89;49.94;98493.13;109475;1253;73471;-59
2023/12/20 06:10:36;;;;;;;;;;;;;;;10.01;50.08;98488.09;109383;1253;68293;-59
2023/12/20 06:13:06;;;;;;;;;;;;;;;10.02;50.12;98492.91;109441;1253;71444;-59
2023/12/20 06:15:35;;;;;;;;;;;;;;;9.93;50.61;98491.34;109409;1253;58918;-58
2023/12/20 06:18:03;;;;;;;;;;;;;;;9.93;50.88;98488.83;109428;1255;58884;-59
2023/12/20 06:20:30;;;;;;;;;;;;;;;10.02;50.98;98488.84;109474;1253;74846;-58
2023/12/20 06:22:58;;;;;;;;;;;;;;;10.23;50.70;98493.23;109474;1253;68167;-58
2023/12/20 06:25:25;;;;;;;;;;;;;;;10.33;50.04;98487.29;109451;1253;71439;-59
2023/12/20 06:27:53;;;;;;;;;;;;;;;10.18;50.63;98486.02;109450;1253;60290;-59
2023/12/20 06:30:20;;;;;;;;;;;;;;;10.19;50.69;98480.77;109407;1254;59027;-59
2023/12/20 06:32:48;;;;;;;;;;;;;;;10.17;51.17;98482.65;109404;1253;74728;-59
2023/12/20 06:35:15;;;;;;;;;;;;;;;10.31;51.16;98482.48;109396;1253;66898;-59
2023/12/20 06:37:43;;;;;;;;;;;;;;;10.32;51.53;98481.29;109469;1253;71502;-59
2023/12/20 06:40:11;;;;;;;;;;;;;;;10.74;50.42;98486.16;109373;1253;60946;-59
2023/12/20 06:42:46;;;;;;;;;;;;;;;10.80;50.69;98484.81;109390;1252;59349;-59
2023/12/20 06:45:31;;;;;;;;;;;;;;;10.93;50.91;98480.31;109467;1253;73916;-59
2023/12/20 06:47:58;;;;;;;;;;;;;;;10.94;51.36;98481.91;109586;1252;68830;-59
2023/12/20 06:50:26;;;;;;;;;;;;;;;10.69;52.98;98486.90;109621;1251;72706;-59
2023/12/20 06:52:53;;;;;;;;;;;;;;;10.62;53.58;98496.92;109592;1253;59655;-58
2023/12/20 06:55:21;;;;;;;;;;;;;;;10.85;52.62;98502.94;109616;1252;60023;-60
2023/12/20 06:57:48;;;;;;;;;;;;;;;10.82;51.70;98501.86;109602;1253;74680;-59
2023/12/20 07:00:17;;;;;;;;;;;;;;;10.89;51.14;98502.36;109641;1252;68574;-58
2023/12/20 07:02:44;;;;;;;;;;;;;;;10.80;51.08;98506.41;109626;1251;72731;-58
2023/12/20 07:05:12;;;;;;;;;;;;;;;10.54;51.07;98506.97;109618;1251;60977;-61
2023/12/20 07:07:39;;;;;;;;;;;;;;;10.47;50.90;98504.91;109607;1254;59011;-59
2023/12/20 07:10:07;;;;;;;;;;;;;;;10.47;51.21;98505.61;109656;1252;73453;-58
2023/12/20 07:12:35;;;;;;;;;;;;;;;10.61;50.47;98511.31;109611;1252;67411;-58
2023/12/20 07:15:02;;;;;;;;;;;;;;;10.48;50.78;98513.55;109573;1253;73208;-59
2023/12/20 07:17:30;;;;;;;;;;;;;;;10.53;50.69;98517.00;109647;1251;60913;-58
2023/12/20 07:19:57;;;;;;;;;;;;;;;10.21;50.80;98510.41;109534;1252;58886;-58
2023/12/20 07:22:25;;;;;;;;;;;;;;;10.06;50.94;98500.52;109642;1253;73370;-59
2023/12/20 07:24:54;;;;;;;;;;;;;;;10.09;50.63;98498.30;109532;1252;67604;-58
2023/12/20 07:27:22;;;;;;;;;;;;;;;10.16;50.13;98491.98;109609;1253;72748;-59
2023/12/20 07:29:49;;;;;;;;;;;;;;;10.06;50.18;98481.73;109580;1253;60901;-58
2023/12/20 07:32:17;;;;;;;;;;;;;;;10.15;49.90;98481.38;109598;1253;58971;-58
2023/12/20 07:34:45;;;;;;;;;;;;;;;10.25;49.61;98478.43;109517;1253;74724;-58
2023/12/20 07:37:13;;;;;;;;;;;;;;;10.15;50.09;98483.73;109568;1253;67588;-59
2023/12/20 07:39:41;;;;;;;;;;;;;;;10.00;50.45;98479.95;109594;1253;71426;-58
2023/12/20 07:42:08;;;;;;;;;;;;;;;10.35;49.47;98479.73;109589;1253;59672;-58
2023/12/20 07:44:36;;;;;;;;;;;;;;;10.30;49.60;98487.52;109617;1253;60026;-58
2023/12/20 07:47:03;;;;;;;;;;;;;;;10.36;49.52;98487.12;109486;1253;73437;-59
2023/12/20 07:49:31;;;;;;;;;;;;;;;10.91;48.05;98482.95;109618;1253;69735;-58
2023/12/20 07:51:59;;;;;;;;;;;;;;;11.40;46.64;98489.58;109487;1253;72737;-58
2023/12/20 07:54:27;;;;;;;;;;;;;;;11.48;46.13;98489.70;109546;1253;60945;-61
2023/12/20 07:56:55;;;;;;;;;;;;;;;11.60;45.82;98489.05;109512;1253;59911;-61
2023/12/20 07:59:22;;;;;;;;;;;;;;;11.63;45.59;98483.48;109558;1253;73483;-59
2023/12/20 08:01:59;;;;;;;;;;;;;;;11.61;45.76;98484.03;109543;1253;67727;-59
2023/12/20 08:04:27;;;;;;;;;;;;;;;11.22;46.66;98479.23;109549;1253;72742;-59
2023/12/20 08:06:55;;;;;;;;;;;;;;;11.18;46.50;98482.59;109507;1253;59316;-59
2023/12/20 08:09:22;;;;;;;;;;;;;;;11.76;45.51;98483.98;109562;1253;59869;-59
2023/12/20 08:11:50;;;;;;;;;;;;;;;12.15;44.66;98484.63;109329;1253;73439;-60
2023/12/20 08:14:17;;;;;;;;;;;;;;;12.38;43.94;98487.91;109522;1253;68437;-60
2023/12/20 08:16:45;;;;;;;;;;;;;;;12.40;43.52;98487.93;109429;1254;70535;-59
2023/12/20 08:19:13;;;;;;;;;;;;;;;12.41;43.44;98488.67;109413;1254;59347;-59
2023/12/20 08:21:41;;;;;;;;;;;;;;;12.42;43.36;98490.77;109475;1254;58957;-58
2023/12/20 08:24:08;;;;;;;;;;;;;;;12.53;43.08;98484.84;109585;1253;74712;-58
2023/12/20 08:26:36;;;;;;;;;;;;;;;12.33;43.38;98486.70;109443;1253;68598;-58
2023/12/20 08:29:03;;;;;;;;;;;;;;;12.79;42.61;98483.77;109447;1254;71460;-59
2023/12/20 08:31:31;;;;;;;;;;;;;;;12.17;43.06;98481.42;109425;1258;58914;-59
2023/12/20 08:33:58;;;;;;;;;;;;;;;12.10;43.56;98482.10;109479;1253;59873;-58
2023/12/20 08:36:26;;;;;;;;;;;;;;;12.45;43.36;98482.69;109625;1253;73457;-59
2023/12/20 08:38:55;;;;;;;;;;;;;;;12.20;43.42;98479.81;109435;1253;68812;-59
2023/12/20 08:41:22;;;;;;;;;;;;;;;12.27;43.64;98478.38;109580;1253;72933;-59
2023/12/20 08:43:50;;;;;;;;;;;;;;;12.22;43.37;98475.21;109155;1259;59000;-59
2023/12/20 08:46:18;;;;;;;;;;;;;;;12.23;42.97;98459.73;109567;1252;59851;-59
2023/12/20 08:48:46;;;;;;;;;;;;;;;12.51;42.58;98462.41;109678;1252;73429;-58
2023/12/20 08:51:13;;;;;;;;;;;;;;;13.38;41.47;98470.53;109622;1253;67305;-58
2023/12/20 08:53:41;;;;;;;;;;;;;;;13.57;40.62;98462.09;109666;1251;73002;-59
2023/12/20 08:56:09;;;;;;;;;;;;;;;13.64;40.47;98457.98;109650;1251;60116;-59
2023/12/20 08:58:36;;;;;;;;;;;;;;;13.64;40.48;98456.63;109637;1253;59040;-59
2023/12/20 09:01:04;;;;;;;;;;;;;;;13.47;40.78;98456.37;109647;1251;74842;-62
2023/12/20 09:03:32;;;;;;;;;;;;;;;13.05;41.42;98450.49;109593;1251;68816;-60
2023/12/20 09:05:59;;;;;;;;;;;;;;;13.00;42.16;98450.63;109415;1252;71018;-61
2023/12/20 09:08:26;;;;;;;;;;;;;;;12.80;42.19;98439.77;109642;1251;59904;-60
2023/12/20 09:10:54;;;;;;;;;;;;;;;12.56;42.44;98429.50;109658;1252;59071;-59
2023/12/20 09:13:26;;;;;;;;;;;;;;;13.14;41.69;98427.42;109669;1252;75018;-61
2023/12/20 09:15:55;;;;;;;;;;;;;;;12.81;42.02;98429.34;109422;1252;66722;-59
2023/12/20 09:18:22;;;;;;;;;;;;;;;12.64;42.55;98424.48;109557;1252;72654;-61
2023/12/20 09:20:50;;;;;;;;;;;;;;;12.99;41.96;98429.64;109648;1251;58944;-59
2023/12/20 09:23:18;;;;;;;;;;;;;;;12.91;41.80;98426.77;109666;1251;59019;-59
2023/12/20 09:25:45;;;;;;;;;;;;;;;12.79;42.14;98420.02;109621;1253;74715;-59
2023/12/20 09:28:13;;;;;;;;;;;;;;;12.91;42.02;98415.23;109600;1252;67525;-58
2023/12/20 09:30:41;;;;;;;;;;;;;;;12.70;42.46;98410.38;109618;1251;72701;-59
2023/12/20 09:33:09;;;;;;;;;;;;;;;12.95;42.30;98419.30;109603;1251;59028;-59
2023/12/20 09:35:36;;;;;;;;;;;;;;;13.44;41.44;98417.02;109624;1253;59033;-59
2023/12/20 09:38:04;;;;;;;;;;;;;;;14.19;40.38;98418.35;109651;1253;74934;-59
2023/12/20 09:40:32;;;;;;;;;;;;;;;14.12;40.03;98419.85;109267;1252;68941;-59
2023/12/20 09:43:03;;;;;;;;;;;;;;;14.42;39.96;98420.73;109622;1251;71932;-63
2023/12/20 09:45:31;;;;;;;;;;;;;;;14.64;39.52;98412.59;109595;1251;60109;-61
2023/12/20 09:47:58;;;;;;;;;;;;;;;13.72;40.22;98417.70;109565;1251;59054;-61
2023/12/20 09:50:26;;;;;;;;;;;;;;;14.29;40.19;98417.60;109637;1251;73883;-63
2023/12/20 09:52:56;;;;;;;;;;;;;;;14.16;39.81;98407.82;109533;1253;67077;-59
2023/12/20 09:55:23;;;;;;;;;;;;;;;14.20;40.00;98417.45;109375;1256;72639;-61
2023/12/20 09:57:51;;;;;;;;;;;;;;;14.10;40.51;98407.73;109335;1256;59288;-61
2023/12/20 10:00:19;;;;;;;;;;;;;;;14.43;39.98;98397.38;109135;1253;58985;-60
2023/12/20 10:02:50;;;;;;;;;;;;;;;14.47;40.03;98397.23;109407;1253;73847;-60
2023/12/20 10:05:20;;;;;;;;;;;;;;;14.50;40.02;98399.10;109266;1256;67703;-59
2023/12/20 10:07:48;;;;;;;;;;;;;;;14.64;39.59;98398.72;109130;1256;71454;-60
2023/12/20 10:10:16;;;;;;;;;;;;;;;14.44;39.87;98391.81;109185;1256;60119;-60
2023/12/20 10:13:03;;;;;;;;;;;;;;;14.60;39.58;98390.52;109172;1257;58925;-59
2023/12/20 10:15:30;;;;;;;;;;;;;;;14.45;39.70;98393.13;109198;1256;74897;-59
2023/12/20 10:17:58;;;;;;;;;;;;;;;14.59;39.30;98391.53;109160;1256;68562;-58
2023/12/20 10:20:29;;;;;;;;;;;;;;;14.23;39.79;98392.23;109131;1256;72770;-59
2023/12/20 10:22:57;;;;;;;;;;;;;;;14.43;39.76;98387.61;109159;1256;59070;-60
2023/12/20 10:25:25;;;;;;;;;;;;;;;14.40;39.60;98387.24;109406;1254;59062;-60
2023/12/20 10:28:08;;;;;;;;;;;;;;;14.61;39.37;98394.41;109247;1254;74760;-62
2023/12/20 10:30:36;;;;;;;;;;;;;;;14.43;39.36;98390.64;109430;1254;68831;-59
2023/12/20 10:33:05;;;;;;;;;;;;;;;14.40;39.28;98394.31;109401;1254;72720;-59
2023/12/20 10:35:32;;;;;;;;;;;;;;;14.76;38.58;98393.63;109476;1254;58989;-62
2023/12/20 10:38:01;;;;;;;;;;;;;;;14.35;38.77;98394.91;109660;1252;58842;-59
2023/12/20 10:40:29;;;;;;;;;;;;;;;14.80;38.25;98400.30;109650;1252;73653;-61
2023/12/20 10:42:57;;;;;;;;;;;;;;;14.83;37.94;98399.52;109662;1251;68696;-60
2023/12/20 10:45:25;;;;;;;;;;;;;;;14.46;38.15;98401.83;109644;1252;72766;-63
2023/12/20 10:47:53;;;;;;;;;;;;;;;14.41;38.33;98400.78;109258;1256;60102;-61
2023/12/20 10:50:20;;;;;;;;;;;;;;;15.08;37.44;98405.23;109330;1252;59551;-60
2023/12/20 10:52:48;;;;;;;;;;;;;;;15.33;36.81;98399.89;109557;1251;74725;-60
2023/12/20 10:55:15;;;;;;;;;;;;;;;15.57;36.59;98396.84;109567;1252;68214;-59
2023/12/20 10:57:43;;;;;;;;;;;;;;;15.44;36.42;98394.15;109592;1252;71570;-61
2023/12/20 11:00:11;;;;;;;;;;;;;;;15.65;36.20;98393.30;109612;1256;60106;-60
2023/12/20 11:02:39;;;;;;;;;;;;;;;15.66;36.15;98390.86;109464;1252;59983;-59
2023/12/20 11:05:10;;;;;;;;;;;;;;;15.39;36.56;98391.73;109594;1253;74695;-62
2023/12/20 11:07:39;;;;;;;;;;;;;;;15.17;36.97;98390.70;109452;1251;69036;-59
2023/12/20 11:10:20;;;;;;;;;;;;;;;15.32;36.77;98387.63;109500;1252;71731;-59
2023/12/20 11:12:54;;;;;;;;;;;;;;;15.30;36.76;98380.02;109420;1254;60143;-59
2023/12/20 11:15:21;;;;;;;;;;;;;;;14.95;37.25;98372.96;109586;1252;59875;-62
2023/12/20 11:17:56;;;;;;;;;;;;;;;14.67;37.26;98370.77;109290;1253;73010;-62
2023/12/20 11:20:24;;;;;;;;;;;;;;;14.85;37.03;98368.30;109602;1253;67652;-59
2023/12/20 11:22:52;;;;;;;;;;;;;;;14.26;37.54;98359.45;109375;1252;71296;-62
2023/12/20 11:25:20;;;;;;;;;;;;;;;14.13;37.61;98361.64;109524;1253;60107;-61
2023/12/20 11:28:09;;;;;;;;;;;;;;;14.35;37.43;98359.76;109393;1252;59019;-62
2023/12/20 11:30:45;;;;;;;;;;;;;;;14.30;37.66;98351.61;109600;1251;75145;-61
2023/12/20 11:33:13;;;;;;;;;;;;;;;14.53;37.46;98350.33;109570;1252;67556;-59
2023/12/20 11:35:41;;;;;;;;;;;;;;;14.79;37.20;98350.70;109596;1251;72701;-60
2023/12/20 11:38:09;;;;;;;;;;;;;;;14.25;37.70;98342.15;109573;1253;60096;-61
2023/12/20 11:40:37;;;;;;;;;;;;;;;14.16;37.92;98343.34;109339;1252;59112;-60
2023/12/20 11:43:05;;;;;;;;;;;;;;;14.01;38.25;98336.19;109614;1252;74839;-59
2023/12/20 11:45:34;;;;;;;;;;;;;;;13.97;38.59;98334.82;109520;1252;68828;-60
2023/12/20 11:48:02;;;;;;;;;;;;;;;13.64;39.02;98332.86;109528;1252;72906;-60
2023/12/20 11:50:32;;;;;;;;;;;;;;;13.38;39.40;98323.89;109521;1253;58937;-62
2023/12/20 11:53:00;;;;;;;;;;;;;;;13.43;39.65;98320.88;109594;1251;59849;-61
2023/12/20 11:55:27;;;;;;;;;;;;;;;13.53;39.73;98316.30;109529;1252;73770;-61
2023/12/20 11:57:55;;;;;;;;;;;;;;;13.28;40.26;98313.86;109182;1253;66617;-61
2023/12/20 12:00:22;;;;;;;;;;;;;;;13.33;40.31;98312.86;109404;1253;71546;-60
2023/12/20 12:02:59;;;;;;;;;;;;;;;13.25;40.42;98307.55;109222;1252;59338;-59
2023/12/20 12:05:26;;;;;;;;;;;;;;;13.40;40.09;98300.52;109597;1253;59812;-60
2023/12/20 12:07:54;;;;;;;;;;;;;;;13.28;40.27;98289.98;109195;1253;74738;-59
2023/12/20 12:10:22;;;;;;;;;;;;;;;13.19;40.60;98287.89;109477;1257;68883;-59
2023/12/20 12:12:50;;;;;;;;;;;;;;;12.96;40.76;98283.77;109413;1254;71822;-62
2023/12/20 12:15:17;;;;;;;;;;;;;;;12.93;40.72;98278.33;109495;1254;59337;-59
2023/12/20 12:17:52;;;;;;;;;;;;;;;12.96;40.66;98281.12;109190;1253;59063;-59
2023/12/20 12:20:19;;;;;;;;;;;;;;;13.21;40.26;98280.59;109476;1253;73445;-59
2023/12/20 12:22:57;;;;;;;;;;;;;;;13.68;39.75;98282.11;109473;1252;68612;-59
2023/12/20 12:25:25;;;;;;;;;;;;;;;13.77;39.70;98280.91;109474;1253;71811;-60
2023/12/20 12:27:53;;;;;;;;;;;;;;;14.02;39.03;98274.71;109434;1254;58943;-59
2023/12/20 12:30:20;;;;;;;;;;;;;;;14.35;38.74;98279.46;109452;1252;59899;-61
2023/12/20 12:32:47;;;;;;;;;;;;;;;14.61;38.11;98270.52;109489;1253;74743;-61
2023/12/20 12:35:15;;;;;;;;;;;;;;;14.39;38.52;98271.35;109219;1253;68659;-60
2023/12/20 12:37:43;;;;;;;;;;;;;;;13.88;38.90;98266.69;109465;1256;71790;-60
2023/12/20 12:40:11;;;;;;;;;;;;;;;13.49;39.55;98261.88;109561;1253;58939;-59
2023/12/20 12:42:39;;;;;;;;;;;;;;;13.56;39.74;98255.23;109572;1252;59967;-59